sensor_id;sensor_type;location;lat;lon;timestamp;P1;durP1;ratioP1;P2;durP2;ratioP2
15271;SDS011;7737;51.578;7.268;2023-03-23T00:02:11;8.32;;;4.53;;
15271;SDS011;7737;51.578;7.268;2023-03-23T00:04:38;6.57;;;4.47;;
15271;SDS011;7737;51.578;7.268;2023-03-23T00:07:04;6.20;;;4.18;;
15271;SDS011;7737;51.578;7.268;2023-03-23T00:09:31;6.05;;;4.30;;
15271;SDS011;7737;51.578;7.268;2023-03-23T00:11:59;6.28;;;4.18;;
15271;SDS011;7737;51.578;7.268;2023-03-23T00:14:32;6.40;;;4.15;;
15271;SDS011;7737;51.578;7.268;2023-03-23T00:17:06;4.75;;;3.83;;
15271;SDS011;7737;51.578;7.268;2023-03-23T00:19:34;5.90;;;3.53;;
15271;SDS011;7737;51.578;7.268;2023-03-23T00:22:11;5.50;;;3.83;;
15271;SDS011;7737;51.578;7.268;2023-03-23T00:24:39;5.47;;;3.50;;
15271;SDS011;7737;51.578;7.268;2023-03-23T00:27:06;5.70;;;3.25;;
15271;SDS011;7737;51.578;7.268;2023-03-23T00:29:34;5.53;;;3.67;;
15271;SDS011;7737;51.578;7.268;2023-03-23T00:32:01;5.45;;;3.30;;
15271;SDS011;7737;51.578;7.268;2023-03-23T00:34:28;3.97;;;3.10;;
15271;SDS011;7737;51.578;7.268;2023-03-23T00:36:57;4.85;;;3.20;;
15271;SDS011;7737;51.578;7.268;2023-03-23T00:39:24;4.93;;;3.03;;
15271;SDS011;7737;51.578;7.268;2023-03-23T00:41:51;5.32;;;3.20;;
15271;SDS011;7737;51.578;7.268;2023-03-23T00:44:19;5.50;;;2.95;;
15271;SDS011;7737;51.578;7.268;2023-03-23T00:46:50;4.38;;;2.83;;
15271;SDS011;7737;51.578;7.268;2023-03-23T00:49:17;3.70;;;2.70;;
15271;SDS011;7737;51.578;7.268;2023-03-23T00:51:45;5.13;;;2.92;;
15271;SDS011;7737;51.578;7.268;2023-03-23T00:54:12;4.18;;;2.80;;
15271;SDS011;7737;51.578;7.268;2023-03-23T00:56:38;3.90;;;2.40;;
15271;SDS011;7737;51.578;7.268;2023-03-23T00:59:05;5.47;;;2.40;;
15271;SDS011;7737;51.578;7.268;2023-03-23T01:01:32;5.60;;;2.53;;
15271;SDS011;7737;51.578;7.268;2023-03-23T01:04:00;3.17;;;2.22;;
15271;SDS011;7737;51.578;7.268;2023-03-23T01:06:29;4.68;;;2.70;;
15271;SDS011;7737;51.578;7.268;2023-03-23T01:08:56;3.10;;;2.30;;
15271;SDS011;7737;51.578;7.268;2023-03-23T01:11:24;4.55;;;2.40;;
15271;SDS011;7737;51.578;7.268;2023-03-23T01:13:51;3.20;;;2.45;;
15271;SDS011;7737;51.578;7.268;2023-03-23T01:16:18;4.18;;;2.40;;
15271;SDS011;7737;51.578;7.268;2023-03-23T01:18:44;3.65;;;2.50;;
15271;SDS011;7737;51.578;7.268;2023-03-23T01:21:13;2.78;;;2.10;;
15271;SDS011;7737;51.578;7.268;2023-03-23T01:23:42;3.33;;;2.25;;
15271;SDS011;7737;51.578;7.268;2023-03-23T01:26:10;3.33;;;2.17;;
15271;SDS011;7737;51.578;7.268;2023-03-23T01:28:38;2.17;;;1.92;;
15271;SDS011;7737;51.578;7.268;2023-03-23T01:31:05;4.10;;;2.03;;
15271;SDS011;7737;51.578;7.268;2023-03-23T01:33:34;4.22;;;1.98;;
15271;SDS011;7737;51.578;7.268;2023-03-23T01:36:02;2.13;;;1.90;;
15271;SDS011;7737;51.578;7.268;2023-03-23T01:38:31;2.92;;;2.10;;
15271;SDS011;7737;51.578;7.268;2023-03-23T01:40:59;3.97;;;2.30;;
15271;SDS011;7737;51.578;7.268;2023-03-23T01:43:25;2.00;;;1.80;;
15271;SDS011;7737;51.578;7.268;2023-03-23T01:45:52;3.10;;;2.10;;
15271;SDS011;7737;51.578;7.268;2023-03-23T01:48:21;2.75;;;1.83;;
15271;SDS011;7737;51.578;7.268;2023-03-23T01:50:52;3.90;;;2.30;;
15271;SDS011;7737;51.578;7.268;2023-03-23T01:53:22;3.97;;;1.90;;
15271;SDS011;7737;51.578;7.268;2023-03-23T01:55:52;2.50;;;1.80;;
15271;SDS011;7737;51.578;7.268;2023-03-23T01:58:23;2.40;;;1.80;;
15271;SDS011;7737;51.578;7.268;2023-03-23T02:00:52;2.97;;;2.22;;
15271;SDS011;7737;51.578;7.268;2023-03-23T02:03:20;2.58;;;1.92;;
15271;SDS011;7737;51.578;7.268;2023-03-23T02:05:48;3.35;;;1.60;;
15271;SDS011;7737;51.578;7.268;2023-03-23T02:08:16;2.60;;;1.73;;
15271;SDS011;7737;51.578;7.268;2023-03-23T02:10:43;2.42;;;1.55;;
15271;SDS011;7737;51.578;7.268;2023-03-23T02:13:11;1.60;;;1.38;;
15271;SDS011;7737;51.578;7.268;2023-03-23T02:15:46;2.13;;;1.58;;
15271;SDS011;7737;51.578;7.268;2023-03-23T02:18:24;2.00;;;1.30;;
15271;SDS011;7737;51.578;7.268;2023-03-23T02:21:22;2.88;;;1.50;;
15271;SDS011;7737;51.578;7.268;2023-03-23T02:27:17;2.92;;;1.50;;
15271;SDS011;7737;51.578;7.268;2023-03-23T02:30:09;1.73;;;1.33;;
15271;SDS011;7737;51.578;7.268;2023-03-23T02:35:56;2.42;;;1.50;;
15271;SDS011;7737;51.578;7.268;2023-03-23T02:38:28;2.30;;;1.55;;
15271;SDS011;7737;51.578;7.268;2023-03-23T02:40:59;2.38;;;1.67;;
15271;SDS011;7737;51.578;7.268;2023-03-23T02:43:28;2.60;;;1.70;;
15271;SDS011;7737;51.578;7.268;2023-03-23T02:45:59;2.45;;;1.80;;
15271;SDS011;7737;51.578;7.268;2023-03-23T02:48:28;2.50;;;1.60;;
15271;SDS011;7737;51.578;7.268;2023-03-23T02:50:56;3.05;;;1.88;;
15271;SDS011;7737;51.578;7.268;2023-03-23T02:53:26;2.38;;;1.80;;
15271;SDS011;7737;51.578;7.268;2023-03-23T02:55:55;2.38;;;1.65;;
15271;SDS011;7737;51.578;7.268;2023-03-23T02:58:23;3.08;;;1.85;;
15271;SDS011;7737;51.578;7.268;2023-03-23T03:00:51;2.47;;;2.03;;
15271;SDS011;7737;51.578;7.268;2023-03-23T03:03:19;2.33;;;2.10;;
15271;SDS011;7737;51.578;7.268;2023-03-23T03:05:51;2.30;;;1.80;;
15271;SDS011;7737;51.578;7.268;2023-03-23T03:08:33;2.17;;;1.98;;
15271;SDS011;7737;51.578;7.268;2023-03-23T03:11:05;3.13;;;2.35;;
15271;SDS011;7737;51.578;7.268;2023-03-23T03:13:35;1.90;;;1.80;;
15271;SDS011;7737;51.578;7.268;2023-03-23T03:16:12;2.15;;;1.95;;
15271;SDS011;7737;51.578;7.268;2023-03-23T03:18:47;2.20;;;2.00;;
15271;SDS011;7737;51.578;7.268;2023-03-23T03:21:21;2.25;;;1.73;;
15271;SDS011;7737;51.578;7.268;2023-03-23T03:23:52;2.85;;;2.00;;
15271;SDS011;7737;51.578;7.268;2023-03-23T03:26:21;2.08;;;1.77;;
15271;SDS011;7737;51.578;7.268;2023-03-23T03:28:51;2.55;;;1.90;;
15271;SDS011;7737;51.578;7.268;2023-03-23T03:31:19;2.90;;;1.95;;
15271;SDS011;7737;51.578;7.268;2023-03-23T03:33:48;2.53;;;1.80;;
15271;SDS011;7737;51.578;7.268;2023-03-23T03:36:16;2.30;;;1.90;;
15271;SDS011;7737;51.578;7.268;2023-03-23T03:38:48;2.33;;;1.80;;
15271;SDS011;7737;51.578;7.268;2023-03-23T03:41:16;3.08;;;2.08;;
15271;SDS011;7737;51.578;7.268;2023-03-23T03:43:44;2.63;;;1.52;;
15271;SDS011;7737;51.578;7.268;2023-03-23T03:46:11;2.75;;;1.67;;
15271;SDS011;7737;51.578;7.268;2023-03-23T03:48:37;2.30;;;1.73;;
15271;SDS011;7737;51.578;7.268;2023-03-23T03:51:04;1.95;;;1.70;;
15271;SDS011;7737;51.578;7.268;2023-03-23T03:53:30;3.08;;;1.90;;
15271;SDS011;7737;51.578;7.268;2023-03-23T03:55:58;3.63;;;1.80;;
15271;SDS011;7737;51.578;7.268;2023-03-23T03:58:26;3.53;;;2.05;;
15271;SDS011;7737;51.578;7.268;2023-03-23T04:00:56;2.75;;;1.75;;
15271;SDS011;7737;51.578;7.268;2023-03-23T04:03:24;2.40;;;1.70;;
15271;SDS011;7737;51.578;7.268;2023-03-23T04:05:51;2.80;;;1.60;;
15271;SDS011;7737;51.578;7.268;2023-03-23T04:08:20;2.03;;;1.83;;
15271;SDS011;7737;51.578;7.268;2023-03-23T04:10:47;2.45;;;1.52;;
15271;SDS011;7737;51.578;7.268;2023-03-23T04:13:15;2.83;;;1.85;;
15271;SDS011;7737;51.578;7.268;2023-03-23T04:15:43;1.90;;;1.70;;
15271;SDS011;7737;51.578;7.268;2023-03-23T04:18:09;2.47;;;1.70;;
15271;SDS011;7737;51.578;7.268;2023-03-23T04:20:36;1.80;;;1.63;;
15271;SDS011;7737;51.578;7.268;2023-03-23T04:23:03;2.22;;;1.50;;
15271;SDS011;7737;51.578;7.268;2023-03-23T04:25:30;2.55;;;1.75;;
15271;SDS011;7737;51.578;7.268;2023-03-23T04:27:58;2.42;;;1.40;;
15271;SDS011;7737;51.578;7.268;2023-03-23T04:30:27;2.75;;;2.13;;
15271;SDS011;7737;51.578;7.268;2023-03-23T04:32:56;3.28;;;1.70;;
15271;SDS011;7737;51.578;7.268;2023-03-23T04:35:25;1.63;;;1.50;;
15271;SDS011;7737;51.578;7.268;2023-03-23T04:37:53;1.70;;;1.58;;
15271;SDS011;7737;51.578;7.268;2023-03-23T04:40:20;1.42;;;1.30;;
15271;SDS011;7737;51.578;7.268;2023-03-23T04:42:47;3.05;;;1.65;;
15271;SDS011;7737;51.578;7.268;2023-03-23T04:45:16;2.20;;;1.60;;
15271;SDS011;7737;51.578;7.268;2023-03-23T04:47:48;2.78;;;1.60;;
15271;SDS011;7737;51.578;7.268;2023-03-23T04:50:19;1.60;;;1.50;;
15271;SDS011;7737;51.578;7.268;2023-03-23T04:52:49;1.80;;;1.63;;
15271;SDS011;7737;51.578;7.268;2023-03-23T04:55:17;1.50;;;1.40;;
15271;SDS011;7737;51.578;7.268;2023-03-23T04:57:44;1.55;;;1.45;;
15271;SDS011;7737;51.578;7.268;2023-03-23T05:00:11;1.95;;;1.63;;
15271;SDS011;7737;51.578;7.268;2023-03-23T05:02:41;3.00;;;1.50;;
15271;SDS011;7737;51.578;7.268;2023-03-23T05:05:10;4.05;;;1.80;;
15271;SDS011;7737;51.578;7.268;2023-03-23T05:07:38;1.88;;;1.67;;
15271;SDS011;7737;51.578;7.268;2023-03-23T05:10:05;3.28;;;1.58;;
15271;SDS011;7737;51.578;7.268;2023-03-23T05:12:34;2.65;;;1.80;;
15271;SDS011;7737;51.578;7.268;2023-03-23T05:15:00;2.50;;;1.80;;
15271;SDS011;7737;51.578;7.268;2023-03-23T05:17:27;2.83;;;1.60;;
15271;SDS011;7737;51.578;7.268;2023-03-23T05:19:55;2.33;;;1.75;;
15271;SDS011;7737;51.578;7.268;2023-03-23T05:22:23;2.00;;;1.55;;
15271;SDS011;7737;51.578;7.268;2023-03-23T05:24:52;2.17;;;1.80;;
15271;SDS011;7737;51.578;7.268;2023-03-23T05:27:19;2.08;;;1.77;;
15271;SDS011;7737;51.578;7.268;2023-03-23T05:29:46;2.22;;;1.52;;
15271;SDS011;7737;51.578;7.268;2023-03-23T05:32:14;2.88;;;1.60;;
15271;SDS011;7737;51.578;7.268;2023-03-23T05:34:40;1.90;;;1.70;;
15271;SDS011;7737;51.578;7.268;2023-03-23T05:37:08;1.98;;;1.63;;
15271;SDS011;7737;51.578;7.268;2023-03-23T05:39:38;1.98;;;1.77;;
15271;SDS011;7737;51.578;7.268;2023-03-23T05:42:05;2.45;;;1.52;;
15271;SDS011;7737;51.578;7.268;2023-03-23T05:44:32;3.42;;;1.67;;
15271;SDS011;7737;51.578;7.268;2023-03-23T05:46:59;3.55;;;1.88;;
15271;SDS011;7737;51.578;7.268;2023-03-23T05:49:26;2.00;;;1.80;;
15271;SDS011;7737;51.578;7.268;2023-03-23T05:51:52;2.22;;;1.48;;
15271;SDS011;7737;51.578;7.268;2023-03-23T05:54:19;2.83;;;1.70;;
15271;SDS011;7737;51.578;7.268;2023-03-23T05:56:47;3.78;;;1.75;;
15271;SDS011;7737;51.578;7.268;2023-03-23T05:59:14;2.72;;;1.85;;
15271;SDS011;7737;51.578;7.268;2023-03-23T06:01:40;3.03;;;1.58;;
15271;SDS011;7737;51.578;7.268;2023-03-23T06:04:07;4.35;;;2.13;;
15271;SDS011;7737;51.578;7.268;2023-03-23T06:06:34;3.42;;;2.08;;
15271;SDS011;7737;51.578;7.268;2023-03-23T06:09:01;2.60;;;1.73;;
15271;SDS011;7737;51.578;7.268;2023-03-23T06:11:28;2.70;;;2.08;;
15271;SDS011;7737;51.578;7.268;2023-03-23T06:13:56;2.38;;;1.80;;
15271;SDS011;7737;51.578;7.268;2023-03-23T06:16:23;3.88;;;1.75;;
15271;SDS011;7737;51.578;7.268;2023-03-23T06:18:50;3.28;;;1.65;;
15271;SDS011;7737;51.578;7.268;2023-03-23T06:21:16;2.90;;;1.70;;
15271;SDS011;7737;51.578;7.268;2023-03-23T06:23:44;3.28;;;1.88;;
15271;SDS011;7737;51.578;7.268;2023-03-23T06:26:11;3.58;;;2.17;;
15271;SDS011;7737;51.578;7.268;2023-03-23T06:28:41;3.00;;;1.75;;
15271;SDS011;7737;51.578;7.268;2023-03-23T06:31:09;2.78;;;2.00;;
15271;SDS011;7737;51.578;7.268;2023-03-23T06:33:36;2.45;;;1.90;;
15271;SDS011;7737;51.578;7.268;2023-03-23T06:36:05;2.55;;;1.70;;
15271;SDS011;7737;51.578;7.268;2023-03-23T06:38:32;2.63;;;2.03;;
15271;SDS011;7737;51.578;7.268;2023-03-23T06:40:59;2.47;;;1.88;;
15271;SDS011;7737;51.578;7.268;2023-03-23T06:43:25;3.47;;;2.05;;
15271;SDS011;7737;51.578;7.268;2023-03-23T06:45:52;2.15;;;1.95;;
15271;SDS011;7737;51.578;7.268;2023-03-23T06:48:20;3.30;;;2.20;;
15271;SDS011;7737;51.578;7.268;2023-03-23T06:50:46;2.38;;;1.90;;
15271;SDS011;7737;51.578;7.268;2023-03-23T06:53:13;2.60;;;1.90;;
15271;SDS011;7737;51.578;7.268;2023-03-23T06:55:39;3.83;;;1.85;;
15271;SDS011;7737;51.578;7.268;2023-03-23T06:58:08;2.88;;;1.98;;
15271;SDS011;7737;51.578;7.268;2023-03-23T07:00:35;2.92;;;1.88;;
15271;SDS011;7737;51.578;7.268;2023-03-23T07:03:02;3.83;;;1.90;;
15271;SDS011;7737;51.578;7.268;2023-03-23T07:05:30;3.55;;;1.83;;
15271;SDS011;7737;51.578;7.268;2023-03-23T07:07:58;2.72;;;1.60;;
15271;SDS011;7737;51.578;7.268;2023-03-23T07:10:24;3.33;;;1.70;;
15271;SDS011;7737;51.578;7.268;2023-03-23T07:12:51;4.55;;;2.22;;
15271;SDS011;7737;51.578;7.268;2023-03-23T07:15:17;2.92;;;1.80;;
15271;SDS011;7737;51.578;7.268;2023-03-23T07:17:44;3.40;;;2.22;;
15271;SDS011;7737;51.578;7.268;2023-03-23T07:20:11;7.60;;;2.00;;
15271;SDS011;7737;51.578;7.268;2023-03-23T07:22:40;3.40;;;1.80;;
15271;SDS011;7737;51.578;7.268;2023-03-23T07:25:07;3.63;;;1.70;;
15271;SDS011;7737;51.578;7.268;2023-03-23T07:27:34;3.15;;;1.60;;
15271;SDS011;7737;51.578;7.268;2023-03-23T07:30:00;3.15;;;1.90;;
15271;SDS011;7737;51.578;7.268;2023-03-23T07:32:27;4.70;;;1.70;;
15271;SDS011;7737;51.578;7.268;2023-03-23T07:34:54;4.97;;;2.42;;
15271;SDS011;7737;51.578;7.268;2023-03-23T07:37:21;2.92;;;2.17;;
15271;SDS011;7737;51.578;7.268;2023-03-23T07:39:50;2.72;;;1.70;;
15271;SDS011;7737;51.578;7.268;2023-03-23T07:42:16;4.45;;;1.80;;
15271;SDS011;7737;51.578;7.268;2023-03-23T07:44:43;4.43;;;1.80;;
15271;SDS011;7737;51.578;7.268;2023-03-23T07:47:09;4.13;;;1.80;;
15271;SDS011;7737;51.578;7.268;2023-03-23T07:49:36;3.60;;;1.85;;
15271;SDS011;7737;51.578;7.268;2023-03-23T07:52:03;5.10;;;1.67;;
15271;SDS011;7737;51.578;7.268;2023-03-23T07:54:30;3.45;;;1.42;;
15271;SDS011;7737;51.578;7.268;2023-03-23T07:56:58;3.80;;;1.80;;
15271;SDS011;7737;51.578;7.268;2023-03-23T07:59:24;3.47;;;1.67;;
15271;SDS011;7737;51.578;7.268;2023-03-23T08:01:51;4.28;;;1.92;;
15271;SDS011;7737;51.578;7.268;2023-03-23T08:04:17;5.63;;;1.58;;
15271;SDS011;7737;51.578;7.268;2023-03-23T08:06:44;4.30;;;1.65;;
15271;SDS011;7737;51.578;7.268;2023-03-23T08:09:10;3.28;;;1.70;;
15271;SDS011;7737;51.578;7.268;2023-03-23T08:11:38;4.40;;;2.00;;
15271;SDS011;7737;51.578;7.268;2023-03-23T08:14:06;4.95;;;2.10;;
15271;SDS011;7737;51.578;7.268;2023-03-23T08:16:32;4.20;;;2.22;;
15271;SDS011;7737;51.578;7.268;2023-03-23T08:18:59;4.80;;;1.65;;
15271;SDS011;7737;51.578;7.268;2023-03-23T08:21:25;4.10;;;1.77;;
15271;SDS011;7737;51.578;7.268;2023-03-23T08:23:52;3.95;;;1.70;;
15271;SDS011;7737;51.578;7.268;2023-03-23T08:26:19;3.95;;;1.45;;
15271;SDS011;7737;51.578;7.268;2023-03-23T08:28:46;4.10;;;1.90;;
15271;SDS011;7737;51.578;7.268;2023-03-23T08:31:14;2.83;;;1.85;;
15271;SDS011;7737;51.578;7.268;2023-03-23T08:33:42;2.25;;;1.20;;
15271;SDS011;7737;51.578;7.268;2023-03-23T08:36:08;3.22;;;1.67;;
15271;SDS011;7737;51.578;7.268;2023-03-23T08:38:35;3.63;;;1.65;;
15271;SDS011;7737;51.578;7.268;2023-03-23T08:41:03;3.70;;;2.13;;
15271;SDS011;7737;51.578;7.268;2023-03-23T08:43:32;5.00;;;1.70;;
15271;SDS011;7737;51.578;7.268;2023-03-23T08:46:00;4.40;;;1.65;;
15271;SDS011;7737;51.578;7.268;2023-03-23T08:48:33;3.80;;;1.63;;
15271;SDS011;7737;51.578;7.268;2023-03-23T08:51:00;4.38;;;1.73;;
15271;SDS011;7737;51.578;7.268;2023-03-23T08:53:27;3.50;;;1.73;;
15271;SDS011;7737;51.578;7.268;2023-03-23T08:55:55;4.47;;;1.73;;
15271;SDS011;7737;51.578;7.268;2023-03-23T08:58:22;2.92;;;1.48;;
15271;SDS011;7737;51.578;7.268;2023-03-23T09:00:49;6.63;;;1.70;;
15271;SDS011;7737;51.578;7.268;2023-03-23T09:03:15;3.92;;;1.85;;
15271;SDS011;7737;51.578;7.268;2023-03-23T09:05:43;5.03;;;1.40;;
15271;SDS011;7737;51.578;7.268;2023-03-23T09:08:11;3.03;;;1.77;;
15271;SDS011;7737;51.578;7.268;2023-03-23T09:10:38;4.65;;;1.67;;
15271;SDS011;7737;51.578;7.268;2023-03-23T09:13:05;3.03;;;1.48;;
15271;SDS011;7737;51.578;7.268;2023-03-23T09:15:32;4.97;;;1.80;;
15271;SDS011;7737;51.578;7.268;2023-03-23T09:17:59;3.45;;;1.40;;
15271;SDS011;7737;51.578;7.268;2023-03-23T09:20:27;5.90;;;1.60;;
15271;SDS011;7737;51.578;7.268;2023-03-23T09:22:55;5.80;;;1.60;;
15271;SDS011;7737;51.578;7.268;2023-03-23T09:25:23;5.55;;;1.38;;
15271;SDS011;7737;51.578;7.268;2023-03-23T09:27:52;3.63;;;1.40;;
15271;SDS011;7737;51.578;7.268;2023-03-23T09:30:22;3.75;;;1.58;;
15271;SDS011;7737;51.578;7.268;2023-03-23T09:32:51;4.40;;;1.58;;
15271;SDS011;7737;51.578;7.268;2023-03-23T09:35:18;4.95;;;1.60;;
15271;SDS011;7737;51.578;7.268;2023-03-23T09:37:46;5.72;;;1.80;;
15271;SDS011;7737;51.578;7.268;2023-03-23T09:40:17;6.30;;;1.38;;
15271;SDS011;7737;51.578;7.268;2023-03-23T09:42:49;4.15;;;1.63;;
15271;SDS011;7737;51.578;7.268;2023-03-23T09:45:25;3.65;;;1.45;;
15271;SDS011;7737;51.578;7.268;2023-03-23T09:48:03;5.30;;;1.60;;
15271;SDS011;7737;51.578;7.268;2023-03-23T09:50:47;7.40;;;1.73;;
15271;SDS011;7737;51.578;7.268;2023-03-23T09:53:18;3.47;;;1.20;;
15271;SDS011;7737;51.578;7.268;2023-03-23T09:55:48;5.40;;;1.63;;
15271;SDS011;7737;51.578;7.268;2023-03-23T09:58:16;6.68;;;1.85;;
15271;SDS011;7737;51.578;7.268;2023-03-23T10:00:50;4.20;;;1.50;;
15271;SDS011;7737;51.578;7.268;2023-03-23T10:03:21;3.90;;;0.85;;
15271;SDS011;7737;51.578;7.268;2023-03-23T10:05:53;4.68;;;1.33;;
15271;SDS011;7737;51.578;7.268;2023-03-23T10:08:21;3.42;;;1.17;;
15271;SDS011;7737;51.578;7.268;2023-03-23T10:10:53;4.03;;;1.10;;
15271;SDS011;7737;51.578;7.268;2023-03-23T10:13:28;4.88;;;1.45;;
15271;SDS011;7737;51.578;7.268;2023-03-23T10:16:08;4.50;;;1.20;;
15271;SDS011;7737;51.578;7.268;2023-03-23T10:18:40;3.80;;;1.10;;
15271;SDS011;7737;51.578;7.268;2023-03-23T10:21:13;5.20;;;1.45;;
15271;SDS011;7737;51.578;7.268;2023-03-23T10:23:49;3.92;;;1.30;;
15271;SDS011;7737;51.578;7.268;2023-03-23T10:26:28;3.13;;;1.13;;
15271;SDS011;7737;51.578;7.268;2023-03-23T10:29:01;3.83;;;1.30;;
15271;SDS011;7737;51.578;7.268;2023-03-23T10:31:38;4.95;;;1.48;;
15271;SDS011;7737;51.578;7.268;2023-03-23T10:34:09;5.43;;;1.20;;
15271;SDS011;7737;51.578;7.268;2023-03-23T10:36:41;5.88;;;1.50;;
15271;SDS011;7737;51.578;7.268;2023-03-23T10:39:19;4.93;;;1.45;;
15271;SDS011;7737;51.578;7.268;2023-03-23T10:41:50;3.80;;;1.55;;
15271;SDS011;7737;51.578;7.268;2023-03-23T10:44:18;5.80;;;2.10;;
15271;SDS011;7737;51.578;7.268;2023-03-23T10:46:48;6.38;;;2.33;;
15271;SDS011;7737;51.578;7.268;2023-03-23T10:49:22;5.55;;;2.40;;
15271;SDS011;7737;51.578;7.268;2023-03-23T10:51:53;4.05;;;2.28;;
15271;SDS011;7737;51.578;7.268;2023-03-23T10:54:26;5.95;;;2.50;;
15271;SDS011;7737;51.578;7.268;2023-03-23T10:56:56;6.05;;;2.42;;
15271;SDS011;7737;51.578;7.268;2023-03-23T10:59:26;6.68;;;3.10;;
15271;SDS011;7737;51.578;7.268;2023-03-23T11:01:54;5.78;;;2.60;;
15271;SDS011;7737;51.578;7.268;2023-03-23T11:04:22;5.22;;;2.90;;
15271;SDS011;7737;51.578;7.268;2023-03-23T11:06:51;5.35;;;1.90;;
15271;SDS011;7737;51.578;7.268;2023-03-23T11:09:19;4.00;;;1.45;;
15271;SDS011;7737;51.578;7.268;2023-03-23T11:11:48;3.78;;;1.30;;
15271;SDS011;7737;51.578;7.268;2023-03-23T11:14:18;3.10;;;1.23;;
15271;SDS011;7737;51.578;7.268;2023-03-23T11:16:50;4.72;;;1.30;;
15271;SDS011;7737;51.578;7.268;2023-03-23T11:19:21;2.22;;;1.33;;
15271;SDS011;7737;51.578;7.268;2023-03-23T11:21:50;4.32;;;1.60;;
15271;SDS011;7737;51.578;7.268;2023-03-23T11:24:18;2.78;;;1.33;;
15271;SDS011;7737;51.578;7.268;2023-03-23T11:26:48;3.63;;;1.50;;
15271;SDS011;7737;51.578;7.268;2023-03-23T11:29:18;2.40;;;1.33;;
15271;SDS011;7737;51.578;7.268;2023-03-23T11:31:48;3.20;;;1.70;;
15271;SDS011;7737;51.578;7.268;2023-03-23T11:34:18;3.70;;;1.42;;
15271;SDS011;7737;51.578;7.268;2023-03-23T11:36:47;4.05;;;1.40;;
15271;SDS011;7737;51.578;7.268;2023-03-23T11:39:22;3.67;;;1.50;;
15271;SDS011;7737;51.578;7.268;2023-03-23T11:41:50;4.03;;;1.80;;
15271;SDS011;7737;51.578;7.268;2023-03-23T11:44:19;3.78;;;1.65;;
15271;SDS011;7737;51.578;7.268;2023-03-23T11:46:50;3.00;;;1.60;;
15271;SDS011;7737;51.578;7.268;2023-03-23T11:49:28;3.42;;;1.63;;
15271;SDS011;7737;51.578;7.268;2023-03-23T11:52:04;3.85;;;1.42;;
15271;SDS011;7737;51.578;7.268;2023-03-23T11:54:37;2.90;;;1.45;;
15271;SDS011;7737;51.578;7.268;2023-03-23T11:57:10;4.10;;;1.50;;
15271;SDS011;7737;51.578;7.268;2023-03-23T11:59:40;4.47;;;1.60;;
15271;SDS011;7737;51.578;7.268;2023-03-23T12:05:18;3.40;;;1.60;;
15271;SDS011;7737;51.578;7.268;2023-03-23T12:08:00;5.57;;;1.70;;
15271;SDS011;7737;51.578;7.268;2023-03-23T12:10:38;3.42;;;1.80;;
15271;SDS011;7737;51.578;7.268;2023-03-23T12:13:12;4.03;;;1.83;;
15271;SDS011;7737;51.578;7.268;2023-03-23T12:15:51;2.83;;;1.67;;
15271;SDS011;7737;51.578;7.268;2023-03-23T12:18:36;3.55;;;2.05;;
15271;SDS011;7737;51.578;7.268;2023-03-23T12:21:12;6.00;;;4.03;;
15271;SDS011;7737;51.578;7.268;2023-03-23T12:23:49;4.75;;;2.70;;
15271;SDS011;7737;51.578;7.268;2023-03-23T12:26:29;5.63;;;3.38;;
15271;SDS011;7737;51.578;7.268;2023-03-23T12:29:10;4.88;;;3.25;;
15271;SDS011;7737;51.578;7.268;2023-03-23T12:31:47;4.82;;;3.40;;
15271;SDS011;7737;51.578;7.268;2023-03-23T12:34:25;4.97;;;4.07;;
15271;SDS011;7737;51.578;7.268;2023-03-23T12:37:13;6.65;;;4.65;;
15271;SDS011;7737;51.578;7.268;2023-03-23T12:40:02;6.10;;;3.92;;
15271;SDS011;7737;51.578;7.268;2023-03-23T12:42:41;7.90;;;3.90;;
15271;SDS011;7737;51.578;7.268;2023-03-23T12:45:16;5.43;;;3.80;;
15271;SDS011;7737;51.578;7.268;2023-03-23T12:47:52;3.75;;;2.92;;
15271;SDS011;7737;51.578;7.268;2023-03-23T12:50:24;5.43;;;2.97;;
15271;SDS011;7737;51.578;7.268;2023-03-23T12:52:55;4.95;;;2.90;;
15271;SDS011;7737;51.578;7.268;2023-03-23T12:55:27;4.35;;;2.70;;
15271;SDS011;7737;51.578;7.268;2023-03-23T12:58:02;3.63;;;3.22;;
15271;SDS011;7737;51.578;7.268;2023-03-23T13:00:33;4.47;;;3.17;;
15271;SDS011;7737;51.578;7.268;2023-03-23T13:03:19;4.47;;;2.30;;
15271;SDS011;7737;51.578;7.268;2023-03-23T13:05:53;5.05;;;2.65;;
15271;SDS011;7737;51.578;7.268;2023-03-23T13:08:24;3.15;;;1.95;;
15271;SDS011;7737;51.578;7.268;2023-03-23T13:10:56;4.00;;;2.45;;
15271;SDS011;7737;51.578;7.268;2023-03-23T13:13:26;4.40;;;2.20;;
15271;SDS011;7737;51.578;7.268;2023-03-23T13:16:07;4.80;;;2.58;;
15271;SDS011;7737;51.578;7.268;2023-03-23T13:18:40;4.43;;;3.50;;
15271;SDS011;7737;51.578;7.268;2023-03-23T13:21:14;3.55;;;2.30;;
15271;SDS011;7737;51.578;7.268;2023-03-23T13:23:47;3.10;;;2.28;;
15271;SDS011;7737;51.578;7.268;2023-03-23T13:26:17;2.97;;;2.00;;
15271;SDS011;7737;51.578;7.268;2023-03-23T13:28:54;3.33;;;2.30;;
15271;SDS011;7737;51.578;7.268;2023-03-23T13:31:24;2.92;;;2.00;;
15271;SDS011;7737;51.578;7.268;2023-03-23T13:34:00;4.18;;;2.03;;
15271;SDS011;7737;51.578;7.268;2023-03-23T13:36:30;2.58;;;1.70;;
15271;SDS011;7737;51.578;7.268;2023-03-23T13:39:02;3.20;;;1.67;;
15271;SDS011;7737;51.578;7.268;2023-03-23T13:41:32;2.30;;;1.60;;
15271;SDS011;7737;51.578;7.268;2023-03-23T13:44:15;2.67;;;1.52;;
15271;SDS011;7737;51.578;7.268;2023-03-23T13:46:53;2.50;;;2.00;;
15271;SDS011;7737;51.578;7.268;2023-03-23T13:49:23;3.75;;;1.90;;
15271;SDS011;7737;51.578;7.268;2023-03-23T13:51:59;4.18;;;1.67;;
15271;SDS011;7737;51.578;7.268;2023-03-23T13:54:40;4.28;;;2.25;;
15271;SDS011;7737;51.578;7.268;2023-03-23T13:57:21;6.45;;;2.30;;
15271;SDS011;7737;51.578;7.268;2023-03-23T13:59:57;5.35;;;2.10;;
15271;SDS011;7737;51.578;7.268;2023-03-23T14:02:36;4.68;;;2.65;;
15271;SDS011;7737;51.578;7.268;2023-03-23T14:05:28;6.00;;;2.08;;
15271;SDS011;7737;51.578;7.268;2023-03-23T14:07:59;4.13;;;1.80;;
15271;SDS011;7737;51.578;7.268;2023-03-23T14:10:36;5.53;;;2.17;;
15271;SDS011;7737;51.578;7.268;2023-03-23T14:13:05;5.35;;;3.33;;
15271;SDS011;7737;51.578;7.268;2023-03-23T14:15:41;5.47;;;2.30;;
15271;SDS011;7737;51.578;7.268;2023-03-23T14:18:12;4.07;;;2.00;;
15271;SDS011;7737;51.578;7.268;2023-03-23T14:20:42;5.47;;;2.15;;
15271;SDS011;7737;51.578;7.268;2023-03-23T14:23:14;4.30;;;2.13;;
15271;SDS011;7737;51.578;7.268;2023-03-23T14:25:42;3.35;;;2.20;;
15271;SDS011;7737;51.578;7.268;2023-03-23T14:28:19;6.63;;;2.80;;
15271;SDS011;7737;51.578;7.268;2023-03-23T14:30:47;4.75;;;2.67;;
15271;SDS011;7737;51.578;7.268;2023-03-23T14:33:18;4.80;;;3.70;;
15271;SDS011;7737;51.578;7.268;2023-03-23T14:35:47;4.20;;;2.28;;
15271;SDS011;7737;51.578;7.268;2023-03-23T14:38:15;5.03;;;2.17;;
15271;SDS011;7737;51.578;7.268;2023-03-23T14:40:45;4.43;;;1.98;;
15271;SDS011;7737;51.578;7.268;2023-03-23T14:43:13;4.75;;;1.70;;
15271;SDS011;7737;51.578;7.268;2023-03-23T14:45:42;3.47;;;2.10;;
15271;SDS011;7737;51.578;7.268;2023-03-23T14:48:10;4.65;;;2.30;;
15271;SDS011;7737;51.578;7.268;2023-03-23T14:50:42;4.03;;;2.20;;
15271;SDS011;7737;51.578;7.268;2023-03-23T14:53:18;3.28;;;2.00;;
15271;SDS011;7737;51.578;7.268;2023-03-23T14:55:48;3.10;;;2.33;;
15271;SDS011;7737;51.578;7.268;2023-03-23T14:58:17;3.80;;;2.10;;
15271;SDS011;7737;51.578;7.268;2023-03-23T15:00:47;3.67;;;2.38;;
15271;SDS011;7737;51.578;7.268;2023-03-23T15:03:17;5.55;;;2.53;;
15271;SDS011;7737;51.578;7.268;2023-03-23T15:05:46;4.07;;;2.45;;
15271;SDS011;7737;51.578;7.268;2023-03-23T15:08:18;4.05;;;2.55;;
15271;SDS011;7737;51.578;7.268;2023-03-23T15:10:51;3.45;;;2.47;;
15271;SDS011;7737;51.578;7.268;2023-03-23T15:13:20;3.38;;;2.92;;
15271;SDS011;7737;51.578;7.268;2023-03-23T15:15:46;4.50;;;2.55;;
15271;SDS011;7737;51.578;7.268;2023-03-23T15:18:20;4.75;;;2.53;;
15271;SDS011;7737;51.578;7.268;2023-03-23T15:20:56;4.90;;;2.38;;
15271;SDS011;7737;51.578;7.268;2023-03-23T15:23:27;4.47;;;1.90;;
15271;SDS011;7737;51.578;7.268;2023-03-23T15:25:55;3.35;;;2.40;;
15271;SDS011;7737;51.578;7.268;2023-03-23T15:28:28;5.90;;;2.25;;